createdAt,value
2022-11-08T00:00:15.080Z,9.30
2022-11-08T00:02:42.637Z,9.30
2022-11-08T00:05:28.668Z,9.30
2022-11-08T00:08:14.850Z,9.30
2022-11-08T00:11:01.248Z,9.30
2022-11-08T00:13:47.452Z,9.30
2022-11-08T00:16:14.877Z,9.30
2022-11-08T00:18:42.285Z,9.30
2022-11-08T00:21:09.734Z,9.30
2022-11-08T00:23:37.085Z,9.30
2022-11-08T00:26:04.486Z,9.30
2022-11-08T00:28:32.082Z,9.30
2022-11-08T00:30:59.427Z,9.30
2022-11-08T00:33:26.848Z,9.30
2022-11-08T00:35:58.956Z,9.20
2022-11-08T00:38:26.489Z,9.20
2022-11-08T00:40:53.994Z,9.20
2022-11-08T00:43:21.722Z,9.20
2022-11-08T00:45:49.127Z,9.10
2022-11-08T00:48:16.706Z,9.10
2022-11-08T00:50:44.367Z,9.10
2022-11-08T00:53:11.687Z,9.10
2022-11-08T00:55:39.118Z,9.00
2022-11-08T00:58:06.554Z,9.00
2022-11-08T01:00:34.035Z,9.00
2022-11-08T01:03:19.531Z,9.00
2022-11-08T01:05:48.627Z,8.90
2022-11-08T01:08:16.893Z,8.90
2022-11-08T01:10:47.236Z,8.90
2022-11-08T01:13:15.009Z,8.80
2022-11-08T01:15:43.937Z,8.80
2022-11-08T01:18:13.618Z,8.80
2022-11-08T01:20:42.363Z,8.80
2022-11-08T01:23:11.347Z,8.70
2022-11-08T01:25:43.744Z,8.80
2022-11-08T01:28:12.382Z,8.70
2022-11-08T01:30:42.704Z,8.70
2022-11-08T01:33:10.599Z,8.70
2022-11-08T01:35:38.857Z,8.60
2022-11-08T01:38:06.948Z,8.70
2022-11-08T01:40:34.939Z,8.70
2022-11-08T01:43:31.539Z,8.70
2022-11-08T01:46:44.566Z,8.70
2022-11-08T01:49:20.580Z,8.80
2022-11-08T01:52:28.429Z,8.80
2022-11-08T01:55:14.220Z,8.80
2022-11-08T01:57:50.650Z,8.80
2022-11-08T02:00:18.601Z,8.80
2022-11-08T02:02:51.760Z,8.80
2022-11-08T02:05:25.953Z,8.70
2022-11-08T02:08:08.827Z,8.70
2022-11-08T02:10:42.877Z,8.70
2022-11-08T02:13:15.222Z,8.70
2022-11-08T02:15:43.300Z,8.70
2022-11-08T02:18:11.904Z,8.70
2022-11-08T02:20:58.174Z,8.70
2022-11-08T02:23:48.043Z,8.70
2022-11-08T02:26:17.811Z,8.70
2022-11-08T02:28:47.490Z,8.70
2022-11-08T02:31:17.067Z,8.70
2022-11-08T02:33:45.469Z,8.70
2022-11-08T02:36:24.670Z,8.70
2022-11-08T02:38:55.357Z,8.60
2022-11-08T02:41:22.668Z,8.60
2022-11-08T02:43:50.049Z,8.60
2022-11-08T02:46:17.518Z,8.50
2022-11-08T02:48:46.338Z,8.50
2022-11-08T02:51:13.643Z,8.40
2022-11-08T02:53:41.006Z,8.40
2022-11-08T02:56:08.415Z,8.40
2022-11-08T02:58:35.945Z,8.40
2022-11-08T03:01:03.373Z,8.40
2022-11-08T03:03:30.771Z,8.30
2022-11-08T03:05:58.188Z,8.30
2022-11-08T03:08:25.579Z,8.30
2022-11-08T03:10:52.929Z,8.30
2022-11-08T03:13:20.332Z,8.30
2022-11-08T03:15:47.731Z,8.30
2022-11-08T03:18:15.415Z,8.30
2022-11-08T03:20:42.991Z,8.20
2022-11-08T03:23:10.484Z,8.20
2022-11-08T03:25:37.840Z,8.20
2022-11-08T03:28:08.658Z,8.20
2022-11-08T03:30:37.163Z,8.20
2022-11-08T03:33:05.016Z,8.10
2022-11-08T03:35:32.692Z,8.10
2022-11-08T03:38:00.164Z,8.10
2022-11-08T03:40:28.152Z,8.10
2022-11-08T03:42:58.779Z,8.10
2022-11-08T03:45:26.206Z,8.10
2022-11-08T03:47:53.765Z,8.20
2022-11-08T03:50:21.194Z,8.10
2022-11-08T03:52:51.144Z,8.20
2022-11-08T03:55:20.913Z,8.20
2022-11-08T03:57:49.921Z,8.10
2022-11-08T04:00:24.439Z,8.10
2022-11-08T04:02:52.416Z,8.10
2022-11-08T04:05:20.054Z,8.00
2022-11-08T04:07:47.859Z,8.00
2022-11-08T04:10:15.390Z,8.00
2022-11-08T04:13:02.147Z,8.00
2022-11-08T04:15:30.870Z,8.00
2022-11-08T04:18:17.706Z,8.00
2022-11-08T04:21:06.315Z,8.00
2022-11-08T04:23:36.747Z,8.10
2022-11-08T04:26:07.428Z,8.10
2022-11-08T04:28:37.181Z,8.10
2022-11-08T04:31:07.723Z,8.00
2022-11-08T04:33:35.413Z,8.10
2022-11-08T04:36:05.573Z,8.10
2022-11-08T04:38:33.298Z,8.10
2022-11-08T04:41:12.107Z,8.10
2022-11-08T04:43:39.536Z,8.00
2022-11-08T04:46:09.096Z,8.10
2022-11-08T04:48:36.521Z,8.10
2022-11-08T04:51:26.970Z,8.10
2022-11-08T04:53:59.779Z,8.10
2022-11-08T04:56:29.771Z,8.10
2022-11-08T04:58:59.395Z,8.10
2022-11-08T05:01:31.290Z,8.20
2022-11-08T05:03:59.004Z,8.20
2022-11-08T05:06:31.613Z,8.20
2022-11-08T05:09:00.029Z,8.20
2022-11-08T05:11:29.242Z,8.20
2022-11-08T05:13:57.587Z,8.20
2022-11-08T05:16:27.780Z,8.20
2022-11-08T05:18:55.441Z,8.20
2022-11-08T05:21:41.933Z,8.20
2022-11-08T05:24:12.168Z,8.30
2022-11-08T05:26:42.665Z,8.30
2022-11-08T05:29:10.422Z,8.30
2022-11-08T05:31:38.191Z,8.30
2022-11-08T05:34:07.411Z,8.30
2022-11-08T05:36:34.995Z,8.30
2022-11-08T05:39:02.493Z,8.30
2022-11-08T05:41:30.352Z,8.30
2022-11-08T05:43:58.126Z,8.30
2022-11-08T05:46:25.534Z,8.30
2022-11-08T05:48:53.184Z,8.30
2022-11-08T05:51:21.953Z,8.30
2022-11-08T05:53:49.408Z,8.40
2022-11-08T05:56:17.934Z,8.40
2022-11-08T05:58:45.736Z,8.40
2022-11-08T06:01:18.492Z,8.40
2022-11-08T06:03:47.079Z,8.40
2022-11-08T06:06:17.448Z,8.40
2022-11-08T06:08:49.985Z,8.30
2022-11-08T06:11:23.795Z,8.30
2022-11-08T06:13:52.817Z,8.40
2022-11-08T06:16:21.132Z,8.40
2022-11-08T06:18:49.013Z,8.50
2022-11-08T06:21:19.001Z,8.40
2022-11-08T06:23:46.547Z,8.50
2022-11-08T06:26:14.208Z,8.50
2022-11-08T06:28:41.554Z,8.60
2022-11-08T06:31:09.089Z,8.60
2022-11-08T06:33:37.057Z,8.70
2022-11-08T06:36:04.723Z,8.70
2022-11-08T06:38:32.130Z,8.70
2022-11-08T06:41:00.870Z,8.80
2022-11-08T06:43:28.638Z,8.80
2022-11-08T06:46:00.989Z,8.80
2022-11-08T06:48:33.970Z,8.80
2022-11-08T06:51:02.211Z,8.80
2022-11-08T06:53:29.628Z,8.90
2022-11-08T06:55:58.674Z,8.80
2022-11-08T06:58:26.038Z,8.80
2022-11-08T07:00:53.415Z,8.80
2022-11-08T07:03:21.070Z,8.80
2022-11-08T07:05:48.664Z,8.90
2022-11-08T07:08:20.669Z,8.90
2022-11-08T07:10:50.849Z,8.80
2022-11-08T07:13:18.461Z,8.80
2022-11-08T07:15:47.764Z,8.80
2022-11-08T07:18:17.147Z,8.80
2022-11-08T07:20:44.606Z,8.80
2022-11-08T07:23:12.758Z,8.90
2022-11-08T07:25:40.483Z,8.80
2022-11-08T07:28:16.182Z,8.80
2022-11-08T07:30:44.858Z,8.80
2022-11-08T07:33:12.678Z,8.80
2022-11-08T07:35:40.169Z,8.70
2022-11-08T07:38:07.516Z,8.80
2022-11-08T07:40:35.461Z,8.80
2022-11-08T07:43:11.674Z,8.80
2022-11-08T07:45:40.836Z,8.90
2022-11-08T07:48:12.376Z,8.90
2022-11-08T07:50:41.758Z,8.90
2022-11-08T07:53:09.354Z,8.90
2022-11-08T07:55:37.970Z,9.00
2022-11-08T07:58:05.818Z,9.00
2022-11-08T08:00:38.525Z,9.00
2022-11-08T08:03:07.725Z,9.00
2022-11-08T08:05:37.406Z,9.10
2022-11-08T08:08:05.271Z,9.10
2022-11-08T08:10:33.382Z,9.20
2022-11-08T08:13:00.939Z,9.20
2022-11-08T08:15:28.359Z,9.20
2022-11-08T08:17:56.040Z,9.20
2022-11-08T08:20:23.360Z,9.30
2022-11-08T08:22:51.966Z,9.40
2022-11-08T08:25:19.861Z,9.30
2022-11-08T08:27:50.279Z,9.30
2022-11-08T08:30:18.606Z,9.30
2022-11-08T08:32:53.542Z,9.30
2022-11-08T08:35:25.261Z,9.40
2022-11-08T08:37:52.617Z,9.50
2022-11-08T08:40:20.034Z,9.60
2022-11-08T08:42:47.648Z,9.60
2022-11-08T08:45:15.358Z,9.80
2022-11-08T08:47:42.769Z,9.90
2022-11-08T08:50:10.491Z,9.90
2022-11-08T08:52:37.969Z,10.10
2022-11-08T08:55:05.760Z,10.20
2022-11-08T08:57:34.248Z,10.20
2022-11-08T09:02:49.591Z,10.10
2022-11-08T09:05:17.107Z,10.20
2022-11-08T09:07:44.559Z,10.20
2022-11-08T09:10:12.388Z,10.10
2022-11-08T09:12:39.886Z,10.10
2022-11-08T09:15:07.681Z,10.20
2022-11-08T09:17:35.073Z,10.40
2022-11-08T09:20:03.261Z,10.40
2022-11-08T09:22:33.776Z,10.50
2022-11-08T09:25:01.409Z,10.50
2022-11-08T09:27:30.459Z,10.60
2022-11-08T09:29:59.454Z,10.60
2022-11-08T09:32:54.069Z,10.70
2022-11-08T09:35:19.423Z,10.70
2022-11-08T09:37:49.795Z,10.80
2022-11-08T09:40:23.915Z,10.80
2022-11-08T09:42:54.755Z,10.80
2022-11-08T09:45:36.334Z,10.80
2022-11-08T09:48:27.710Z,10.90
2022-11-08T09:50:58.835Z,10.90
2022-11-08T09:53:35.533Z,11.00
2022-11-08T09:56:13.656Z,11.00
2022-11-08T09:59:13.072Z,11.10
2022-11-08T10:01:41.169Z,11.30
2022-11-08T10:04:19.360Z,11.30
2022-11-08T10:07:11.086Z,11.50
2022-11-08T10:10:11.805Z,11.50
2022-11-08T10:13:00.863Z,11.50
2022-11-08T10:15:39.761Z,11.60
2022-11-08T10:18:33.305Z,11.50
2022-11-08T10:21:42.968Z,11.40
2022-11-08T10:24:22.402Z,11.40
2022-11-08T10:26:52.882Z,11.30
2022-11-08T10:29:22.773Z,11.40
2022-11-08T10:32:20.356Z,11.50
2022-11-08T10:35:11.563Z,11.50
2022-11-08T10:37:42.465Z,11.40
2022-11-08T10:40:54.579Z,11.30
2022-11-08T10:43:53.611Z,11.40
2022-11-08T10:46:46.915Z,11.50
2022-11-08T10:49:29.481Z,11.50
2022-11-08T10:51:59.515Z,11.50
2022-11-08T10:54:47.727Z,11.60
2022-11-08T10:57:38.821Z,11.50
2022-11-08T11:03:29.054Z,11.40
2022-11-08T11:06:03.794Z,11.50
2022-11-08T11:14:21.815Z,11.80
2022-11-08T11:17:12.325Z,11.70
2022-11-08T11:19:56.673Z,11.80
2022-11-08T11:22:35.093Z,11.70
2022-11-08T11:25:13.683Z,11.70
2022-11-08T11:27:42.776Z,11.60
2022-11-08T11:30:28.379Z,11.70
2022-11-08T11:33:00.226Z,11.70
2022-11-08T11:35:45.344Z,11.80
2022-11-08T11:38:28.637Z,11.80
2022-11-08T11:41:01.108Z,11.80
2022-11-08T11:44:05.734Z,11.80
2022-11-08T11:46:56.995Z,11.80
2022-11-08T11:49:25.453Z,11.80
2022-11-08T11:51:55.105Z,11.70
2022-11-08T11:54:46.148Z,11.70
2022-11-08T11:57:16.791Z,11.70
2022-11-08T12:00:15.169Z,11.70
2022-11-08T12:03:04.799Z,11.70
2022-11-08T12:05:47.186Z,11.70
2022-11-08T12:08:35.650Z,11.80
2022-11-08T12:11:19.333Z,11.70
2022-11-08T12:14:20.089Z,11.80
2022-11-08T12:17:02.472Z,11.90
2022-11-08T12:19:49.301Z,12.00
2022-11-08T12:22:38.007Z,12.20
2022-11-08T12:25:32.809Z,12.40
2022-11-08T12:28:21.892Z,12.50
2022-11-08T12:31:16.230Z,12.70
2022-11-08T12:33:43.605Z,12.90
2022-11-08T12:36:52.752Z,12.90
2022-11-08T12:39:45.530Z,13.30
2022-11-08T12:42:52.676Z,15.20
2022-11-08T12:45:35.283Z,16.40
2022-11-08T12:48:12.073Z,16.20
2022-11-08T12:50:50.157Z,16.10
2022-11-08T12:53:48.893Z,16.50
2022-11-08T12:56:22.693Z,16.00
2022-11-08T12:58:52.049Z,16.20
2022-11-08T13:01:21.209Z,16.40
2022-11-08T13:04:25.393Z,16.40
2022-11-08T13:07:05.025Z,17.50
2022-11-08T13:09:41.563Z,18.30
2022-11-08T13:12:46.690Z,18.00
2022-11-08T13:15:25.154Z,17.30
2022-11-08T13:18:07.547Z,16.10
2022-11-08T13:20:42.365Z,15.40
2022-11-08T13:23:26.229Z,14.80
2022-11-08T13:25:54.502Z,14.20
2022-11-08T13:28:36.712Z,13.70
2022-11-08T13:31:35.309Z,13.30
2022-11-08T13:34:36.217Z,13.00
2022-11-08T13:37:17.551Z,12.70
2022-11-08T13:40:04.172Z,12.40
2022-11-08T13:42:57.089Z,12.20
2022-11-08T13:45:28.852Z,12.10
2022-11-08T13:47:59.245Z,11.90
2022-11-08T13:50:29.817Z,11.70
2022-11-08T13:53:32.647Z,11.70
2022-11-08T13:56:05.912Z,11.60
2022-11-08T13:58:44.397Z,11.50
2022-11-08T14:01:23.797Z,11.50
2022-11-08T14:03:51.214Z,11.50
2022-11-08T14:06:39.867Z,11.50
2022-11-08T14:09:39.347Z,11.40
2022-11-08T14:12:21.391Z,11.40
2022-11-08T14:14:55.987Z,11.30
2022-11-08T14:17:49.016Z,11.30
2022-11-08T14:20:16.478Z,11.30
2022-11-08T14:22:49.972Z,11.20
2022-11-08T14:25:35.829Z,11.10
2022-11-08T14:28:03.404Z,11.10
2022-11-08T14:30:32.238Z,11.10
2022-11-08T14:33:18.089Z,11.00
2022-11-08T14:36:07.748Z,10.90
2022-11-08T14:38:57.937Z,10.90
2022-11-08T14:41:30.022Z,10.80
2022-11-08T14:43:59.329Z,10.70
2022-11-08T14:46:39.550Z,10.70
2022-11-08T14:49:35.773Z,10.60
2022-11-08T14:52:26.005Z,10.60
2022-11-08T14:55:05.847Z,10.50
2022-11-08T14:57:38.307Z,10.50
2022-11-08T15:00:20.732Z,10.40
2022-11-08T15:03:03.378Z,10.30
2022-11-08T15:05:41.191Z,10.30
2022-11-08T15:08:23.068Z,10.30
2022-11-08T15:11:11.542Z,10.20
2022-11-08T15:13:42.426Z,10.20
2022-11-08T15:16:10.870Z,10.10
2022-11-08T15:18:42.857Z,10.10
2022-11-08T15:21:15.733Z,10.10
2022-11-08T15:23:48.560Z,10.10
2022-11-08T15:26:35.243Z,10.00
2022-11-08T15:29:07.440Z,10.10
2022-11-08T15:31:40.740Z,10.10
2022-11-08T15:34:21.676Z,10.10
2022-11-08T15:36:49.739Z,10.10
2022-11-08T15:39:28.550Z,10.00
2022-11-08T15:42:05.002Z,10.00
2022-11-08T15:44:32.593Z,9.90
2022-11-08T15:47:00.006Z,9.90
2022-11-08T15:49:29.343Z,9.80
2022-11-08T15:51:58.881Z,9.70
2022-11-08T15:54:27.078Z,9.70
2022-11-08T15:56:56.562Z,9.70
2022-11-08T15:59:27.693Z,9.70
2022-11-08T16:01:56.906Z,9.70
2022-11-08T16:04:24.571Z,9.70
2022-11-08T16:06:52.119Z,9.60
2022-11-08T16:09:19.656Z,9.60
2022-11-08T16:11:48.150Z,9.60
2022-11-08T16:14:18.932Z,9.60
2022-11-08T16:16:46.392Z,9.60
2022-11-08T16:19:25.111Z,9.60
2022-11-08T16:21:53.125Z,9.60
2022-11-08T16:24:20.587Z,9.60
2022-11-08T16:26:49.215Z,9.60
2022-11-08T16:29:24.778Z,9.60
2022-11-08T16:31:52.807Z,9.60
2022-11-08T16:34:20.475Z,9.60
2022-11-08T16:36:49.840Z,9.60
2022-11-08T16:39:21.257Z,9.60
2022-11-08T16:41:48.679Z,9.60
2022-11-08T16:44:16.143Z,9.50
2022-11-08T16:46:43.529Z,9.50
2022-11-08T16:49:24.732Z,9.50
2022-11-08T16:51:52.015Z,9.50
2022-11-08T16:54:21.646Z,9.40
2022-11-08T16:56:49.140Z,9.40
2022-11-08T16:59:16.513Z,9.40
2022-11-08T17:01:44.612Z,9.40
2022-11-08T17:04:12.067Z,9.40
2022-11-08T17:06:39.610Z,9.30
2022-11-08T17:09:07.372Z,9.30
2022-11-08T17:11:35.065Z,9.20
2022-11-08T17:14:02.484Z,9.20
2022-11-08T17:16:30.100Z,9.20
2022-11-08T17:18:57.935Z,9.20
2022-11-08T17:24:19.797Z,9.10
2022-11-08T17:26:49.276Z,9.10
2022-11-08T17:29:16.642Z,9.10
2022-11-08T17:31:44.057Z,9.20
2022-11-08T17:34:11.423Z,9.20
2022-11-08T17:36:38.788Z,9.20
2022-11-08T17:39:06.234Z,9.20
2022-11-08T17:41:34.230Z,9.20
2022-11-08T17:44:01.611Z,9.10
2022-11-08T17:46:29.019Z,9.10
2022-11-08T17:48:56.452Z,9.10
2022-11-08T17:51:23.794Z,9.10
2022-11-08T17:53:51.195Z,9.10
2022-11-08T17:56:19.367Z,9.10
2022-11-08T17:58:46.964Z,9.00
2022-11-08T18:01:16.110Z,9.00
2022-11-08T18:03:43.608Z,9.00
2022-11-08T18:06:13.460Z,9.00
2022-11-08T18:08:42.172Z,9.00
2022-11-08T18:11:09.685Z,9.00
2022-11-08T18:13:37.153Z,9.00
2022-11-08T18:16:08.640Z,9.00
2022-11-08T18:18:36.405Z,9.00
2022-11-08T18:21:04.783Z,8.90
2022-11-08T18:23:33.046Z,8.80
2022-11-08T18:26:00.862Z,8.80
2022-11-08T18:28:28.333Z,8.80
2022-11-08T18:30:55.757Z,8.80
2022-11-08T18:33:23.284Z,8.70
2022-11-08T18:35:50.673Z,8.70
2022-11-08T18:38:18.128Z,8.70
2022-11-08T18:40:48.781Z,8.70
2022-11-08T18:43:16.516Z,8.70
2022-11-08T18:45:44.704Z,8.70
2022-11-08T18:48:12.129Z,8.60
2022-11-08T18:50:39.744Z,8.60
2022-11-08T18:53:08.840Z,8.60
2022-11-08T18:55:36.613Z,8.60
2022-11-08T18:58:04.485Z,8.60
2022-11-08T19:00:32.024Z,8.50
2022-11-08T19:02:59.499Z,8.50
2022-11-08T19:05:26.986Z,8.50
2022-11-08T19:07:54.743Z,8.50
2022-11-08T19:10:22.353Z,8.50
2022-11-08T19:12:49.779Z,8.50
2022-11-08T19:15:17.259Z,8.40
2022-11-08T19:17:49.766Z,8.40
2022-11-08T19:20:20.845Z,8.30
